sensor_id;sensor_type;location;lat;lon;timestamp;temperature;humidity
6146;DHT22;3104;50.348;7.620;2023-03-20T00:01:24;11.20;99.90
6146;DHT22;3104;50.348;7.620;2023-03-20T00:03:52;11.20;99.90
6146;DHT22;3104;50.348;7.620;2023-03-20T00:06:23;11.20;99.90
6146;DHT22;3104;50.348;7.620;2023-03-20T00:08:52;11.10;99.90
6146;DHT22;3104;50.348;7.620;2023-03-20T00:14:00;11.10;99.90
6146;DHT22;3104;50.348;7.620;2023-03-20T00:16:33;11.00;99.90
6146;DHT22;3104;50.348;7.620;2023-03-20T00:18:59;10.90;99.90
6146;DHT22;3104;50.348;7.620;2023-03-20T00:21:25;10.70;99.90
6146;DHT22;3104;50.348;7.620;2023-03-20T00:23:53;10.60;99.90
6146;DHT22;3104;50.348;7.620;2023-03-20T00:26:19;10.70;99.90
6146;DHT22;3104;50.348;7.620;2023-03-20T00:28:49;10.80;99.90
6146;DHT22;3104;50.348;7.620;2023-03-20T00:31:31;10.70;99.90
6146;DHT22;3104;50.348;7.620;2023-03-20T00:34:02;10.70;99.90
6146;DHT22;3104;50.348;7.620;2023-03-20T00:36:28;10.70;99.90
6146;DHT22;3104;50.348;7.620;2023-03-20T00:38:54;10.60;99.90
6146;DHT22;3104;50.348;7.620;2023-03-20T00:41:26;10.80;99.90
6146;DHT22;3104;50.348;7.620;2023-03-20T00:44:01;10.80;99.90
6146;DHT22;3104;50.348;7.620;2023-03-20T00:46:35;10.70;99.90
6146;DHT22;3104;50.348;7.620;2023-03-20T00:49:01;10.60;99.90
6146;DHT22;3104;50.348;7.620;2023-03-20T00:51:27;10.70;99.90
6146;DHT22;3104;50.348;7.620;2023-03-20T00:53:53;10.70;99.90
6146;DHT22;3104;50.348;7.620;2023-03-20T00:56:31;10.50;99.90
6146;DHT22;3104;50.348;7.620;2023-03-20T00:58:59;10.50;99.90
6146;DHT22;3104;50.348;7.620;2023-03-20T01:01:25;10.50;99.90
6146;DHT22;3104;50.348;7.620;2023-03-20T01:03:51;10.40;99.90
6146;DHT22;3104;50.348;7.620;2023-03-20T01:06:17;10.30;99.90
6146;DHT22;3104;50.348;7.620;2023-03-20T01:08:43;10.20;99.90
6146;DHT22;3104;50.348;7.620;2023-03-20T01:11:11;10.00;99.90
6146;DHT22;3104;50.348;7.620;2023-03-20T01:13:38;9.90;99.90
6146;DHT22;3104;50.348;7.620;2023-03-20T01:16:05;10.00;99.90
6146;DHT22;3104;50.348;7.620;2023-03-20T01:18:31;10.00;99.90
6146;DHT22;3104;50.348;7.620;2023-03-20T01:20:57;10.10;99.90
6146;DHT22;3104;50.348;7.620;2023-03-20T01:23:22;10.10;99.90
6146;DHT22;3104;50.348;7.620;2023-03-20T01:25:49;10.00;99.90
6146;DHT22;3104;50.348;7.620;2023-03-20T01:28:18;10.00;99.90
6146;DHT22;3104;50.348;7.620;2023-03-20T01:30:45;9.80;99.90
6146;DHT22;3104;50.348;7.620;2023-03-20T01:33:19;9.70;99.90
6146;DHT22;3104;50.348;7.620;2023-03-20T01:35:46;9.80;99.90
6146;DHT22;3104;50.348;7.620;2023-03-20T01:38:33;9.70;99.90
6146;DHT22;3104;50.348;7.620;2023-03-20T01:41:00;9.70;99.90
6146;DHT22;3104;50.348;7.620;2023-03-20T01:43:28;9.60;99.90
6146;DHT22;3104;50.348;7.620;2023-03-20T01:46:13;9.70;99.90
6146;DHT22;3104;50.348;7.620;2023-03-20T01:51:22;9.60;99.90
6146;DHT22;3104;50.348;7.620;2023-03-20T01:56:27;9.70;99.90
6146;DHT22;3104;50.348;7.620;2023-03-20T01:59:08;9.80;99.90
6146;DHT22;3104;50.348;7.620;2023-03-20T02:01:35;9.80;99.90
6146;DHT22;3104;50.348;7.620;2023-03-20T02:04:02;9.70;99.90
6146;DHT22;3104;50.348;7.620;2023-03-20T02:06:27;9.70;99.90
6146;DHT22;3104;50.348;7.620;2023-03-20T02:08:53;9.80;99.90
6146;DHT22;3104;50.348;7.620;2023-03-20T02:11:21;9.80;99.90
6146;DHT22;3104;50.348;7.620;2023-03-20T02:13:53;9.80;99.90
6146;DHT22;3104;50.348;7.620;2023-03-20T02:16:19;9.90;99.90
6146;DHT22;3104;50.348;7.620;2023-03-20T02:18:48;9.70;99.90
6146;DHT22;3104;50.348;7.620;2023-03-20T02:27:36;9.50;99.90
6146;DHT22;3104;50.348;7.620;2023-03-20T02:41:31;9.70;99.90
6146;DHT22;3104;50.348;7.620;2023-03-20T02:44:22;9.50;99.90
6146;DHT22;3104;50.348;7.620;2023-03-20T02:55:53;9.50;99.90
6146;DHT22;3104;50.348;7.620;2023-03-20T02:58:48;9.50;99.90
6146;DHT22;3104;50.348;7.620;2023-03-20T03:01:28;9.60;99.90
6146;DHT22;3104;50.348;7.620;2023-03-20T03:04:19;9.50;99.90
6146;DHT22;3104;50.348;7.620;2023-03-20T03:06:46;9.50;99.90
6146;DHT22;3104;50.348;7.620;2023-03-20T03:09:16;9.50;99.90
6146;DHT22;3104;50.348;7.620;2023-03-20T03:11:48;9.60;99.90
6146;DHT22;3104;50.348;7.620;2023-03-20T03:14:21;9.50;99.90
6146;DHT22;3104;50.348;7.620;2023-03-20T03:16:49;9.50;99.90
6146;DHT22;3104;50.348;7.620;2023-03-20T03:19:18;9.60;99.90
6146;DHT22;3104;50.348;7.620;2023-03-20T03:21:46;9.60;99.90
6146;DHT22;3104;50.348;7.620;2023-03-20T03:24:35;9.50;99.90
6146;DHT22;3104;50.348;7.620;2023-03-20T03:27:06;9.50;99.90
6146;DHT22;3104;50.348;7.620;2023-03-20T03:29:36;9.50;99.90
6146;DHT22;3104;50.348;7.620;2023-03-20T03:32:06;9.40;99.90
6146;DHT22;3104;50.348;7.620;2023-03-20T03:34:33;9.40;99.90
6146;DHT22;3104;50.348;7.620;2023-03-20T03:37:07;9.20;99.90
6146;DHT22;3104;50.348;7.620;2023-03-20T03:43:06;9.40;99.90
6146;DHT22;3104;50.348;7.620;2023-03-20T03:45:41;9.30;99.90
6146;DHT22;3104;50.348;7.620;2023-03-20T03:48:18;9.30;99.90
6146;DHT22;3104;50.348;7.620;2023-03-20T03:50:52;9.20;99.90
6146;DHT22;3104;50.348;7.620;2023-03-20T03:53:25;9.20;99.90
6146;DHT22;3104;50.348;7.620;2023-03-20T03:55:54;9.20;99.90
6146;DHT22;3104;50.348;7.620;2023-03-20T03:58:29;9.20;99.90
6146;DHT22;3104;50.348;7.620;2023-03-20T04:00:58;9.10;99.90
6146;DHT22;3104;50.348;7.620;2023-03-20T04:03:29;9.10;99.90
6146;DHT22;3104;50.348;7.620;2023-03-20T04:05:57;9.10;99.90
6146;DHT22;3104;50.348;7.620;2023-03-20T04:08:23;9.20;99.90
6146;DHT22;3104;50.348;7.620;2023-03-20T04:10:49;9.10;99.90
6146;DHT22;3104;50.348;7.620;2023-03-20T04:13:14;9.10;99.90
6146;DHT22;3104;50.348;7.620;2023-03-20T04:15:41;9.10;99.90
6146;DHT22;3104;50.348;7.620;2023-03-20T04:18:12;9.10;99.90
6146;DHT22;3104;50.348;7.620;2023-03-20T04:20:38;9.10;99.90
6146;DHT22;3104;50.348;7.620;2023-03-20T04:23:04;9.00;99.90
6146;DHT22;3104;50.348;7.620;2023-03-20T04:25:30;9.10;99.90
6146;DHT22;3104;50.348;7.620;2023-03-20T04:27:55;9.10;99.90
6146;DHT22;3104;50.348;7.620;2023-03-20T04:30:21;9.20;99.90
6146;DHT22;3104;50.348;7.620;2023-03-20T04:32:47;9.20;99.90
6146;DHT22;3104;50.348;7.620;2023-03-20T04:35:12;9.30;99.90
6146;DHT22;3104;50.348;7.620;2023-03-20T04:37:38;9.30;99.90
6146;DHT22;3104;50.348;7.620;2023-03-20T04:40:04;9.40;99.90
6146;DHT22;3104;50.348;7.620;2023-03-20T04:42:30;9.40;99.90
6146;DHT22;3104;50.348;7.620;2023-03-20T04:44:56;9.40;99.90
6146;DHT22;3104;50.348;7.620;2023-03-20T04:47:21;9.40;99.90
6146;DHT22;3104;50.348;7.620;2023-03-20T04:49:47;9.40;99.90
6146;DHT22;3104;50.348;7.620;2023-03-20T04:52:13;9.30;99.90
6146;DHT22;3104;50.348;7.620;2023-03-20T04:54:39;9.20;99.90
6146;DHT22;3104;50.348;7.620;2023-03-20T04:57:04;9.20;99.90
6146;DHT22;3104;50.348;7.620;2023-03-20T04:59:30;9.20;99.90
6146;DHT22;3104;50.348;7.620;2023-03-20T05:01:56;9.20;99.90
6146;DHT22;3104;50.348;7.620;2023-03-20T05:04:21;9.30;99.90
6146;DHT22;3104;50.348;7.620;2023-03-20T05:06:47;9.30;99.90
6146;DHT22;3104;50.348;7.620;2023-03-20T05:09:14;9.30;99.90
6146;DHT22;3104;50.348;7.620;2023-03-20T05:11:41;9.30;99.90
6146;DHT22;3104;50.348;7.620;2023-03-20T05:14:07;9.30;99.90
6146;DHT22;3104;50.348;7.620;2023-03-20T05:16:32;9.30;99.90
6146;DHT22;3104;50.348;7.620;2023-03-20T05:18:58;9.40;99.90
6146;DHT22;3104;50.348;7.620;2023-03-20T05:21:24;9.40;99.90
6146;DHT22;3104;50.348;7.620;2023-03-20T05:23:50;9.40;99.90
6146;DHT22;3104;50.348;7.620;2023-03-20T05:26:15;9.40;99.90
6146;DHT22;3104;50.348;7.620;2023-03-20T05:28:41;9.40;99.90
6146;DHT22;3104;50.348;7.620;2023-03-20T05:31:07;9.50;99.90
6146;DHT22;3104;50.348;7.620;2023-03-20T05:33:33;9.50;99.90
6146;DHT22;3104;50.348;7.620;2023-03-20T05:35:58;9.40;99.90
6146;DHT22;3104;50.348;7.620;2023-03-20T05:38:24;9.40;99.90
6146;DHT22;3104;50.348;7.620;2023-03-20T05:40:56;9.60;99.90
6146;DHT22;3104;50.348;7.620;2023-03-20T05:43:22;9.60;99.90
6146;DHT22;3104;50.348;7.620;2023-03-20T05:45:47;9.60;99.90
6146;DHT22;3104;50.348;7.620;2023-03-20T05:48:13;9.50;99.90
6146;DHT22;3104;50.348;7.620;2023-03-20T05:50:38;9.50;99.90
6146;DHT22;3104;50.348;7.620;2023-03-20T05:53:04;9.80;99.90
6146;DHT22;3104;50.348;7.620;2023-03-20T05:55:30;9.80;99.90
6146;DHT22;3104;50.348;7.620;2023-03-20T05:57:57;9.70;99.90
6146;DHT22;3104;50.348;7.620;2023-03-20T06:00:23;9.80;99.90
6146;DHT22;3104;50.348;7.620;2023-03-20T06:02:48;9.90;99.90
6146;DHT22;3104;50.348;7.620;2023-03-20T06:05:14;9.80;99.90
6146;DHT22;3104;50.348;7.620;2023-03-20T06:07:40;9.80;99.90
6146;DHT22;3104;50.348;7.620;2023-03-20T06:10:06;9.80;99.90
6146;DHT22;3104;50.348;7.620;2023-03-20T06:12:32;10.20;99.90
6146;DHT22;3104;50.348;7.620;2023-03-20T06:14:57;10.30;99.90
6146;DHT22;3104;50.348;7.620;2023-03-20T06:17:23;10.40;99.90
6146;DHT22;3104;50.348;7.620;2023-03-20T06:19:49;10.60;99.90
6146;DHT22;3104;50.348;7.620;2023-03-20T06:22:14;10.40;99.90
6146;DHT22;3104;50.348;7.620;2023-03-20T06:24:40;10.50;99.90
6146;DHT22;3104;50.348;7.620;2023-03-20T06:27:05;10.40;99.90
6146;DHT22;3104;50.348;7.620;2023-03-20T06:29:31;10.20;99.90
6146;DHT22;3104;50.348;7.620;2023-03-20T06:31:57;10.20;99.90
6146;DHT22;3104;50.348;7.620;2023-03-20T06:34:22;10.10;99.90
6146;DHT22;3104;50.348;7.620;2023-03-20T06:36:48;10.00;99.90
6146;DHT22;3104;50.348;7.620;2023-03-20T06:39:13;10.00;99.90
6146;DHT22;3104;50.348;7.620;2023-03-20T06:41:39;9.90;99.90
6146;DHT22;3104;50.348;7.620;2023-03-20T06:44:04;10.10;99.90
6146;DHT22;3104;50.348;7.620;2023-03-20T06:46:30;10.20;99.90
6146;DHT22;3104;50.348;7.620;2023-03-20T06:48:56;10.30;99.90
6146;DHT22;3104;50.348;7.620;2023-03-20T06:51:21;10.20;99.90
6146;DHT22;3104;50.348;7.620;2023-03-20T06:53:47;10.30;99.90
6146;DHT22;3104;50.348;7.620;2023-03-20T06:56:12;10.30;99.90
6146;DHT22;3104;50.348;7.620;2023-03-20T06:58:38;10.20;99.90
6146;DHT22;3104;50.348;7.620;2023-03-20T07:01:14;10.40;99.90
6146;DHT22;3104;50.348;7.620;2023-03-20T07:03:42;10.40;99.90
6146;DHT22;3104;50.348;7.620;2023-03-20T07:06:08;10.20;99.90
6146;DHT22;3104;50.348;7.620;2023-03-20T07:08:35;10.20;99.90
6146;DHT22;3104;50.348;7.620;2023-03-20T07:11:01;10.20;99.90
6146;DHT22;3104;50.348;7.620;2023-03-20T07:13:29;10.20;99.90
6146;DHT22;3104;50.348;7.620;2023-03-20T07:15:55;10.30;99.90
6146;DHT22;3104;50.348;7.620;2023-03-20T07:18:23;10.40;99.90
6146;DHT22;3104;50.348;7.620;2023-03-20T07:20:50;10.40;99.90
6146;DHT22;3104;50.348;7.620;2023-03-20T07:23:17;10.70;99.90
6146;DHT22;3104;50.348;7.620;2023-03-20T07:25:42;10.80;99.90
6146;DHT22;3104;50.348;7.620;2023-03-20T07:28:09;10.70;99.90
6146;DHT22;3104;50.348;7.620;2023-03-20T07:30:34;10.60;99.90
6146;DHT22;3104;50.348;7.620;2023-03-20T07:33:00;10.50;99.90
6146;DHT22;3104;50.348;7.620;2023-03-20T07:35:26;10.50;99.90
6146;DHT22;3104;50.348;7.620;2023-03-20T07:37:51;10.40;99.90
6146;DHT22;3104;50.348;7.620;2023-03-20T07:40:17;10.30;99.90
6146;DHT22;3104;50.348;7.620;2023-03-20T07:42:44;10.70;99.90
6146;DHT22;3104;50.348;7.620;2023-03-20T07:45:10;10.60;99.90
6146;DHT22;3104;50.348;7.620;2023-03-20T07:47:36;10.70;99.90
6146;DHT22;3104;50.348;7.620;2023-03-20T07:50:02;10.90;99.90
6146;DHT22;3104;50.348;7.620;2023-03-20T07:52:28;10.80;99.90
6146;DHT22;3104;50.348;7.620;2023-03-20T07:54:53;10.70;99.90
6146;DHT22;3104;50.348;7.620;2023-03-20T07:57:19;10.80;99.90
6146;DHT22;3104;50.348;7.620;2023-03-20T07:59:44;10.90;99.90
6146;DHT22;3104;50.348;7.620;2023-03-20T08:02:13;10.80;99.90
6146;DHT22;3104;50.348;7.620;2023-03-20T08:04:40;10.50;99.90
6146;DHT22;3104;50.348;7.620;2023-03-20T08:07:06;10.60;99.90
6146;DHT22;3104;50.348;7.620;2023-03-20T08:09:31;10.60;99.90
6146;DHT22;3104;50.348;7.620;2023-03-20T08:11:57;10.60;99.90
6146;DHT22;3104;50.348;7.620;2023-03-20T08:14:23;10.60;99.90
6146;DHT22;3104;50.348;7.620;2023-03-20T08:16:48;10.70;99.90
6146;DHT22;3104;50.348;7.620;2023-03-20T08:19:14;10.70;99.90
6146;DHT22;3104;50.348;7.620;2023-03-20T08:21:39;11.00;99.90
6146;DHT22;3104;50.348;7.620;2023-03-20T08:24:05;11.10;99.90
6146;DHT22;3104;50.348;7.620;2023-03-20T08:26:31;11.20;99.90
6146;DHT22;3104;50.348;7.620;2023-03-20T08:28:56;11.30;99.90
6146;DHT22;3104;50.348;7.620;2023-03-20T08:31:23;11.40;99.90
6146;DHT22;3104;50.348;7.620;2023-03-20T08:33:49;11.40;99.90
6146;DHT22;3104;50.348;7.620;2023-03-20T08:36:15;11.30;99.90
6146;DHT22;3104;50.348;7.620;2023-03-20T08:38:43;11.40;99.90
6146;DHT22;3104;50.348;7.620;2023-03-20T08:41:09;11.40;99.90
6146;DHT22;3104;50.348;7.620;2023-03-20T08:43:35;11.20;99.90
6146;DHT22;3104;50.348;7.620;2023-03-20T08:46:00;11.00;99.90
6146;DHT22;3104;50.348;7.620;2023-03-20T08:48:26;10.90;99.90
6146;DHT22;3104;50.348;7.620;2023-03-20T08:50:52;10.90;99.90
6146;DHT22;3104;50.348;7.620;2023-03-20T08:53:17;11.00;99.90
6146;DHT22;3104;50.348;7.620;2023-03-20T08:55:49;11.30;99.90
6146;DHT22;3104;50.348;7.620;2023-03-20T08:58:16;11.50;99.90
6146;DHT22;3104;50.348;7.620;2023-03-20T09:00:42;11.10;99.90
6146;DHT22;3104;50.348;7.620;2023-03-20T09:03:11;11.00;99.90
6146;DHT22;3104;50.348;7.620;2023-03-20T09:05:39;11.00;99.90
6146;DHT22;3104;50.348;7.620;2023-03-20T09:08:05;11.30;99.90
6146;DHT22;3104;50.348;7.620;2023-03-20T09:10:31;11.40;99.90
6146;DHT22;3104;50.348;7.620;2023-03-20T09:12:57;11.30;99.90
6146;DHT22;3104;50.348;7.620;2023-03-20T09:15:22;11.20;99.90
6146;DHT22;3104;50.348;7.620;2023-03-20T09:17:48;11.20;99.90
6146;DHT22;3104;50.348;7.620;2023-03-20T09:20:13;11.20;99.90
6146;DHT22;3104;50.348;7.620;2023-03-20T09:22:39;11.10;99.90
6146;DHT22;3104;50.348;7.620;2023-03-20T09:25:08;11.20;99.90
6146;DHT22;3104;50.348;7.620;2023-03-20T09:27:33;11.10;99.90
6146;DHT22;3104;50.348;7.620;2023-03-20T09:29:59;11.30;99.90
6146;DHT22;3104;50.348;7.620;2023-03-20T09:32:25;11.10;99.90
6146;DHT22;3104;50.348;7.620;2023-03-20T09:34:50;11.20;99.90
6146;DHT22;3104;50.348;7.620;2023-03-20T09:37:16;11.20;99.90
6146;DHT22;3104;50.348;7.620;2023-03-20T09:39:41;11.20;99.90
6146;DHT22;3104;50.348;7.620;2023-03-20T09:42:31;11.20;99.90
6146;DHT22;3104;50.348;7.620;2023-03-20T09:48:02;11.40;99.90
6146;DHT22;3104;50.348;7.620;2023-03-20T09:50:38;11.30;99.90
6146;DHT22;3104;50.348;7.620;2023-03-20T09:53:17;11.50;99.90
6146;DHT22;3104;50.348;7.620;2023-03-20T09:55:45;11.50;99.90
6146;DHT22;3104;50.348;7.620;2023-03-20T09:58:29;11.50;99.90
6146;DHT22;3104;50.348;7.620;2023-03-20T10:00:57;11.50;99.90
6146;DHT22;3104;50.348;7.620;2023-03-20T10:03:28;11.60;99.90
6146;DHT22;3104;50.348;7.620;2023-03-20T10:06:00;11.40;99.90
6146;DHT22;3104;50.348;7.620;2023-03-20T10:08:32;11.60;99.90
6146;DHT22;3104;50.348;7.620;2023-03-20T10:13:41;11.80;99.90
6146;DHT22;3104;50.348;7.620;2023-03-20T10:16:26;11.70;99.90
6146;DHT22;3104;50.348;7.620;2023-03-20T10:19:04;11.60;99.90
6146;DHT22;3104;50.348;7.620;2023-03-20T10:21:39;11.70;99.90
6146;DHT22;3104;50.348;7.620;2023-03-20T10:24:16;12.00;99.90
6146;DHT22;3104;50.348;7.620;2023-03-20T10:26:46;12.10;99.90
6146;DHT22;3104;50.348;7.620;2023-03-20T10:29:27;12.20;99.90
6146;DHT22;3104;50.348;7.620;2023-03-20T10:34:50;12.50;99.90
6146;DHT22;3104;50.348;7.620;2023-03-20T10:40:24;13.20;99.90
6146;DHT22;3104;50.348;7.620;2023-03-20T10:42:54;13.30;98.60
6146;DHT22;3104;50.348;7.620;2023-03-20T10:45:30;13.40;96.20
6146;DHT22;3104;50.348;7.620;2023-03-20T10:47:59;13.20;99.90
6146;DHT22;3104;50.348;7.620;2023-03-20T10:50:46;13.30;99.10
6146;DHT22;3104;50.348;7.620;2023-03-20T10:53:22;13.00;92.80
6146;DHT22;3104;50.348;7.620;2023-03-20T10:55:50;12.60;96.40
6146;DHT22;3104;50.348;7.620;2023-03-20T10:58:22;12.20;93.90
6146;DHT22;3104;50.348;7.620;2023-03-20T11:00:49;12.20;96.00
6146;DHT22;3104;50.348;7.620;2023-03-20T11:03:24;12.40;95.40
6146;DHT22;3104;50.348;7.620;2023-03-20T11:05:58;12.50;98.30
6146;DHT22;3104;50.348;7.620;2023-03-20T11:08:39;12.40;94.00
6146;DHT22;3104;50.348;7.620;2023-03-20T11:11:06;12.30;99.20
6146;DHT22;3104;50.348;7.620;2023-03-20T11:13:35;12.10;92.20
6146;DHT22;3104;50.348;7.620;2023-03-20T11:16:29;12.10;80.50
6146;DHT22;3104;50.348;7.620;2023-03-20T11:19:03;12.20;85.20
6146;DHT22;3104;50.348;7.620;2023-03-20T11:21:30;12.20;84.50
6146;DHT22;3104;50.348;7.620;2023-03-20T11:23:56;12.00;88.10
6146;DHT22;3104;50.348;7.620;2023-03-20T11:26:35;12.10;88.90
6146;DHT22;3104;50.348;7.620;2023-03-20T11:29:05;11.90;90.40
6146;DHT22;3104;50.348;7.620;2023-03-20T11:31:39;11.80;91.30
6146;DHT22;3104;50.348;7.620;2023-03-20T11:36:57;11.90;90.60
6146;DHT22;3104;50.348;7.620;2023-03-20T11:39:26;12.00;87.30
6146;DHT22;3104;50.348;7.620;2023-03-20T11:41:56;12.20;83.00
6146;DHT22;3104;50.348;7.620;2023-03-20T11:44:33;12.40;77.50
6146;DHT22;3104;50.348;7.620;2023-03-20T11:47:04;12.20;77.70
6146;DHT22;3104;50.348;7.620;2023-03-20T11:49:32;12.00;79.70
6146;DHT22;3104;50.348;7.620;2023-03-20T11:52:12;12.10;75.10
6146;DHT22;3104;50.348;7.620;2023-03-20T11:54:46;11.80;88.20
6146;DHT22;3104;50.348;7.620;2023-03-20T11:57:36;11.70;84.80
6146;DHT22;3104;50.348;7.620;2023-03-20T12:02:40;11.70;86.40
6146;DHT22;3104;50.348;7.620;2023-03-20T12:05:31;11.90;84.20
6146;DHT22;3104;50.348;7.620;2023-03-20T12:08:21;11.80;84.60
6146;DHT22;3104;50.348;7.620;2023-03-20T12:10:57;12.10;81.60
6146;DHT22;3104;50.348;7.620;2023-03-20T12:13:32;12.00;84.20
6146;DHT22;3104;50.348;7.620;2023-03-20T12:16:11;12.10;90.00
6146;DHT22;3104;50.348;7.620;2023-03-20T12:18:41;12.30;84.70
6146;DHT22;3104;50.348;7.620;2023-03-20T12:21:25;12.30;82.50
6146;DHT22;3104;50.348;7.620;2023-03-20T12:24:03;12.20;79.50
6146;DHT22;3104;50.348;7.620;2023-03-20T12:26:44;11.90;81.80
6146;DHT22;3104;50.348;7.620;2023-03-20T12:32:01;11.90;80.80
6146;DHT22;3104;50.348;7.620;2023-03-20T12:34:47;12.10;84.80
6146;DHT22;3104;50.348;7.620;2023-03-20T12:37:14;12.20;77.50
6146;DHT22;3104;50.348;7.620;2023-03-20T12:39:54;12.00;74.70
6146;DHT22;3104;50.348;7.620;2023-03-20T12:42:31;11.80;82.50
6146;DHT22;3104;50.348;7.620;2023-03-20T12:45:12;11.90;90.30
6146;DHT22;3104;50.348;7.620;2023-03-20T12:50:36;11.70;90.70
6146;DHT22;3104;50.348;7.620;2023-03-20T12:53:17;11.80;88.90
6146;DHT22;3104;50.348;7.620;2023-03-20T13:01:46;11.90;87.60
6146;DHT22;3104;50.348;7.620;2023-03-20T13:07:01;11.70;87.90
6146;DHT22;3104;50.348;7.620;2023-03-20T13:09:33;11.60;86.30
6146;DHT22;3104;50.348;7.620;2023-03-20T13:12:13;11.30;90.30
6146;DHT22;3104;50.348;7.620;2023-03-20T13:14:48;11.50;97.40
6146;DHT22;3104;50.348;7.620;2023-03-20T13:23:35;11.50;99.90
6146;DHT22;3104;50.348;7.620;2023-03-20T13:25:56;11.30;99.90
6146;DHT22;3104;50.348;7.620;2023-03-20T13:42:37;12.00;93.20
6146;DHT22;3104;50.348;7.620;2023-03-20T13:45:24;12.10;93.90
6146;DHT22;3104;50.348;7.620;2023-03-20T13:47:52;11.90;93.30
6146;DHT22;3104;50.348;7.620;2023-03-20T13:50:32;11.60;98.50
6146;DHT22;3104;50.348;7.620;2023-03-20T13:53:18;11.50;99.30
6146;DHT22;3104;50.348;7.620;2023-03-20T13:58:50;11.40;96.70
6146;DHT22;3104;50.348;7.620;2023-03-20T14:01:22;11.60;95.10
6146;DHT22;3104;50.348;7.620;2023-03-20T14:03:50;11.30;96.40
6146;DHT22;3104;50.348;7.620;2023-03-20T14:06:44;11.30;94.70
6146;DHT22;3104;50.348;7.620;2023-03-20T14:09:31;11.30;97.20
6146;DHT22;3104;50.348;7.620;2023-03-20T14:12:11;11.20;97.90
6146;DHT22;3104;50.348;7.620;2023-03-20T14:14:49;11.40;97.30
6146;DHT22;3104;50.348;7.620;2023-03-20T14:17:19;11.40;97.10
6146;DHT22;3104;50.348;7.620;2023-03-20T14:19:47;11.10;96.90
6146;DHT22;3104;50.348;7.620;2023-03-20T14:22:19;11.00;99.90
6146;DHT22;3104;50.348;7.620;2023-03-20T14:24:52;10.90;99.90
6146;DHT22;3104;50.348;7.620;2023-03-20T14:27:20;11.10;99.90
6146;DHT22;3104;50.348;7.620;2023-03-20T14:29:49;11.10;99.90
6146;DHT22;3104;50.348;7.620;2023-03-20T14:34:51;11.10;99.90
6146;DHT22;3104;50.348;7.620;2023-03-20T14:40:02;10.90;99.90
6146;DHT22;3104;50.348;7.620;2023-03-20T14:42:46;10.90;99.90
6146;DHT22;3104;50.348;7.620;2023-03-20T14:53:26;11.00;99.90
6146;DHT22;3104;50.348;7.620;2023-03-20T15:01:07;11.20;99.50
6146;DHT22;3104;50.348;7.620;2023-03-20T15:03:33;11.30;99.90
6146;DHT22;3104;50.348;7.620;2023-03-20T15:06:03;11.30;99.60
6146;DHT22;3104;50.348;7.620;2023-03-20T15:08:34;11.30;99.90
6146;DHT22;3104;50.348;7.620;2023-03-20T15:11:06;11.30;99.90
6146;DHT22;3104;50.348;7.620;2023-03-20T15:13:34;11.40;97.50
6146;DHT22;3104;50.348;7.620;2023-03-20T15:16:06;11.20;97.80
6146;DHT22;3104;50.348;7.620;2023-03-20T15:18:38;11.20;99.90
6146;DHT22;3104;50.348;7.620;2023-03-20T15:21:14;11.20;98.30
6146;DHT22;3104;50.348;7.620;2023-03-20T15:23:45;11.20;97.10
6146;DHT22;3104;50.348;7.620;2023-03-20T15:26:17;11.10;98.70
6146;DHT22;3104;50.348;7.620;2023-03-20T15:28:44;11.10;98.50
6146;DHT22;3104;50.348;7.620;2023-03-20T15:31:22;11.20;98.50
6146;DHT22;3104;50.348;7.620;2023-03-20T15:33:48;11.10;99.90
6146;DHT22;3104;50.348;7.620;2023-03-20T15:36:19;11.10;99.90
6146;DHT22;3104;50.348;7.620;2023-03-20T15:38:47;11.00;99.90
6146;DHT22;3104;50.348;7.620;2023-03-20T15:41:43;11.10;99.20
6146;DHT22;3104;50.348;7.620;2023-03-20T15:44:36;11.20;99.70
6146;DHT22;3104;50.348;7.620;2023-03-20T15:47:16;11.30;98.10
6146;DHT22;3104;50.348;7.620;2023-03-20T15:49:52;11.10;99.90
6146;DHT22;3104;50.348;7.620;2023-03-20T15:52:38;11.10;99.90
6146;DHT22;3104;50.348;7.620;2023-03-20T15:55:10;11.10;99.90
6146;DHT22;3104;50.348;7.620;2023-03-20T15:57:40;11.20;99.70
6146;DHT22;3104;50.348;7.620;2023-03-20T16:00:12;11.20;99.90
6146;DHT22;3104;50.348;7.620;2023-03-20T16:02:40;11.30;99.70
6146;DHT22;3104;50.348;7.620;2023-03-20T16:05:11;11.40;99.20
6146;DHT22;3104;50.348;7.620;2023-03-20T16:07:37;11.50;99.90
6146;DHT22;3104;50.348;7.620;2023-03-20T16:10:30;11.30;98.20
6146;DHT22;3104;50.348;7.620;2023-03-20T16:12:56;11.30;97.80
6146;DHT22;3104;50.348;7.620;2023-03-20T16:15:24;11.30;99.10
6146;DHT22;3104;50.348;7.620;2023-03-20T16:17:55;11.30;98.10
6146;DHT22;3104;50.348;7.620;2023-03-20T16:20:23;11.20;99.80
6146;DHT22;3104;50.348;7.620;2023-03-20T16:22:55;11.20;98.50
6146;DHT22;3104;50.348;7.620;2023-03-20T16:25:21;11.30;99.20
6146;DHT22;3104;50.348;7.620;2023-03-20T16:27:49;11.30;96.50
6146;DHT22;3104;50.348;7.620;2023-03-20T16:30:19;11.20;99.90
6146;DHT22;3104;50.348;7.620;2023-03-20T16:32:49;11.30;99.90
6146;DHT22;3104;50.348;7.620;2023-03-20T16:35:21;11.10;99.80
6146;DHT22;3104;50.348;7.620;2023-03-20T16:37:58;11.20;99.90
6146;DHT22;3104;50.348;7.620;2023-03-20T16:42:53;11.10;99.30
6146;DHT22;3104;50.348;7.620;2023-03-20T16:47:49;11.30;99.90
6146;DHT22;3104;50.348;7.620;2023-03-20T16:50:33;11.40;99.90
6146;DHT22;3104;50.348;7.620;2023-03-20T16:52:59;11.20;99.90
6146;DHT22;3104;50.348;7.620;2023-03-20T16:55:30;11.30;99.30
6146;DHT22;3104;50.348;7.620;2023-03-20T16:57:58;11.30;99.90
6146;DHT22;3104;50.348;7.620;2023-03-20T17:00:26;11.30;99.90
6146;DHT22;3104;50.348;7.620;2023-03-20T17:03:29;11.30;99.90
6146;DHT22;3104;50.348;7.620;2023-03-20T17:06:08;11.30;99.90
6146;DHT22;3104;50.348;7.620;2023-03-20T17:08:58;11.10;99.90
6146;DHT22;3104;50.348;7.620;2023-03-20T17:11:32;11.20;99.50
6146;DHT22;3104;50.348;7.620;2023-03-20T17:13:58;11.20;99.90
6146;DHT22;3104;50.348;7.620;2023-03-20T17:16:25;11.00;99.90
6146;DHT22;3104;50.348;7.620;2023-03-20T17:21:27;11.10;99.90
6146;DHT22;3104;50.348;7.620;2023-03-20T17:23:54;11.10;99.90
6146;DHT22;3104;50.348;7.620;2023-03-20T17:26:19;11.00;99.90
6146;DHT22;3104;50.348;7.620;2023-03-20T17:28:45;11.10;99.90
6146;DHT22;3104;50.348;7.620;2023-03-20T17:31:15;11.20;99.90
6146;DHT22;3104;50.348;7.620;2023-03-20T17:33:41;11.20;99.90
6146;DHT22;3104;50.348;7.620;2023-03-20T17:36:24;11.30;99.90
6146;DHT22;3104;50.348;7.620;2023-03-20T17:38:51;11.40;99.70
6146;DHT22;3104;50.348;7.620;2023-03-20T17:41:18;11.40;99.00
6146;DHT22;3104;50.348;7.620;2023-03-20T17:43:44;11.50;99.70
6146;DHT22;3104;50.348;7.620;2023-03-20T17:46:18;11.40;98.90
6146;DHT22;3104;50.348;7.620;2023-03-20T17:48:45;11.20;99.90
6146;DHT22;3104;50.348;7.620;2023-03-20T17:51:11;11.20;99.90
6146;DHT22;3104;50.348;7.620;2023-03-20T17:53:36;11.40;99.90
6146;DHT22;3104;50.348;7.620;2023-03-20T17:56:02;11.20;99.90
6146;DHT22;3104;50.348;7.620;2023-03-20T17:58:30;11.30;99.90
6146;DHT22;3104;50.348;7.620;2023-03-20T18:00:55;11.20;99.90
6146;DHT22;3104;50.348;7.620;2023-03-20T18:03:21;11.20;99.90
6146;DHT22;3104;50.348;7.620;2023-03-20T18:05:48;11.30;99.90
6146;DHT22;3104;50.348;7.620;2023-03-20T18:08:19;11.40;99.90
6146;DHT22;3104;50.348;7.620;2023-03-20T18:10:46;11.40;99.90
6146;DHT22;3104;50.348;7.620;2023-03-20T18:13:12;11.20;99.90
6146;DHT22;3104;50.348;7.620;2023-03-20T18:15:38;11.20;99.90
6146;DHT22;3104;50.348;7.620;2023-03-20T18:18:06;11.10;99.90
6146;DHT22;3104;50.348;7.620;2023-03-20T18:20:34;11.30;99.90
6146;DHT22;3104;50.348;7.620;2023-03-20T18:22:59;11.20;99.90